sensor_id;sensor_type;location;lat;lon;timestamp;P1;durP1;ratioP1;P2;durP2;ratioP2
67904;SDS011;54709;43.614;1.576;2023-04-01T00:01:43;24.90;;;4.57;;
67904;SDS011;54709;43.614;1.576;2023-04-01T00:04:09;32.10;;;5.85;;
67904;SDS011;54709;43.614;1.576;2023-04-01T00:06:34;32.03;;;5.85;;
67904;SDS011;54709;43.614;1.576;2023-04-01T00:08:59;29.85;;;5.20;;
67904;SDS011;54709;43.614;1.576;2023-04-01T00:11:25;28.98;;;5.10;;
67904;SDS011;54709;43.614;1.576;2023-04-01T00:13:52;31.73;;;5.50;;
67904;SDS011;54709;43.614;1.576;2023-04-01T00:16:18;34.88;;;5.78;;
67904;SDS011;54709;43.614;1.576;2023-04-01T00:18:43;28.83;;;5.75;;
67904;SDS011;54709;43.614;1.576;2023-04-01T00:21:09;26.02;;;4.97;;
67904;SDS011;54709;43.614;1.576;2023-04-01T00:23:34;30.23;;;6.10;;
67904;SDS011;54709;43.614;1.576;2023-04-01T00:26:00;28.63;;;4.65;;
67904;SDS011;54709;43.614;1.576;2023-04-01T00:28:27;26.92;;;5.70;;
67904;SDS011;54709;43.614;1.576;2023-04-01T00:30:53;30.20;;;5.68;;
67904;SDS011;54709;43.614;1.576;2023-04-01T00:33:18;26.80;;;5.63;;
67904;SDS011;54709;43.614;1.576;2023-04-01T00:35:45;32.40;;;4.95;;
67904;SDS011;54709;43.614;1.576;2023-04-01T00:38:10;32.30;;;5.95;;
67904;SDS011;54709;43.614;1.576;2023-04-01T00:40:40;30.70;;;5.78;;
67904;SDS011;54709;43.614;1.576;2023-04-01T00:43:15;35.53;;;5.30;;
67904;SDS011;54709;43.614;1.576;2023-04-01T00:45:44;31.35;;;5.15;;
67904;SDS011;54709;43.614;1.576;2023-04-01T00:48:11;36.63;;;5.55;;
67904;SDS011;54709;43.614;1.576;2023-04-01T00:50:38;31.40;;;5.63;;
67904;SDS011;54709;43.614;1.576;2023-04-01T00:53:05;33.80;;;5.43;;
67904;SDS011;54709;43.614;1.576;2023-04-01T00:55:33;30.33;;;5.53;;
67904;SDS011;54709;43.614;1.576;2023-04-01T00:58:01;26.05;;;4.85;;
67904;SDS011;54709;43.614;1.576;2023-04-01T01:00:29;28.50;;;5.45;;
67904;SDS011;54709;43.614;1.576;2023-04-01T01:02:54;27.63;;;6.15;;
67904;SDS011;54709;43.614;1.576;2023-04-01T01:05:21;29.65;;;5.50;;
67904;SDS011;54709;43.614;1.576;2023-04-01T01:08:10;32.13;;;5.65;;
67904;SDS011;54709;43.614;1.576;2023-04-01T01:10:40;30.80;;;5.75;;
67904;SDS011;54709;43.614;1.576;2023-04-01T01:15:45;30.83;;;5.88;;
67904;SDS011;54709;43.614;1.576;2023-04-01T01:18:16;30.65;;;5.78;;
67904;SDS011;54709;43.614;1.576;2023-04-01T01:29:06;26.30;;;5.10;;
67904;SDS011;54709;43.614;1.576;2023-04-01T01:37:22;30.48;;;5.53;;
67904;SDS011;54709;43.614;1.576;2023-04-01T01:39:51;33.58;;;5.82;;
67904;SDS011;54709;43.614;1.576;2023-04-01T01:42:19;23.90;;;5.53;;
67904;SDS011;54709;43.614;1.576;2023-04-01T01:44:46;29.05;;;5.05;;
67904;SDS011;54709;43.614;1.576;2023-04-01T01:47:12;29.20;;;5.75;;
67904;SDS011;54709;43.614;1.576;2023-04-01T01:49:38;26.02;;;5.45;;
67904;SDS011;54709;43.614;1.576;2023-04-01T01:52:05;29.83;;;5.10;;
67904;SDS011;54709;43.614;1.576;2023-04-01T01:54:30;32.20;;;4.88;;
67904;SDS011;54709;43.614;1.576;2023-04-01T01:56:59;25.00;;;4.85;;
67904;SDS011;54709;43.614;1.576;2023-04-01T01:59:29;31.65;;;5.32;;
67904;SDS011;54709;43.614;1.576;2023-04-01T02:01:56;32.25;;;5.32;;
67904;SDS011;54709;43.614;1.576;2023-04-01T02:04:22;26.40;;;4.82;;
67904;SDS011;54709;43.614;1.576;2023-04-01T02:07:04;27.55;;;5.32;;
67904;SDS011;54709;43.614;1.576;2023-04-01T02:09:32;32.42;;;4.93;;
67904;SDS011;54709;43.614;1.576;2023-04-01T02:12:00;33.50;;;5.85;;
67904;SDS011;54709;43.614;1.576;2023-04-01T02:14:47;27.63;;;4.93;;
67904;SDS011;54709;43.614;1.576;2023-04-01T02:17:19;33.13;;;5.45;;
67904;SDS011;54709;43.614;1.576;2023-04-01T02:22:31;31.85;;;5.35;;
67904;SDS011;54709;43.614;1.576;2023-04-01T02:25:01;30.70;;;4.70;;
67904;SDS011;54709;43.614;1.576;2023-04-01T02:27:30;35.38;;;5.43;;
67904;SDS011;54709;43.614;1.576;2023-04-01T02:29:55;34.08;;;5.25;;
67904;SDS011;54709;43.614;1.576;2023-04-01T02:32:21;35.25;;;5.78;;
67904;SDS011;54709;43.614;1.576;2023-04-01T02:34:47;29.88;;;5.22;;
67904;SDS011;54709;43.614;1.576;2023-04-01T02:37:13;34.20;;;6.10;;
67904;SDS011;54709;43.614;1.576;2023-04-01T02:39:39;29.90;;;5.00;;
67904;SDS011;54709;43.614;1.576;2023-04-01T02:42:05;30.98;;;5.03;;
67904;SDS011;54709;43.614;1.576;2023-04-01T02:44:30;32.28;;;5.35;;
67904;SDS011;54709;43.614;1.576;2023-04-01T02:46:56;31.63;;;5.22;;
67904;SDS011;54709;43.614;1.576;2023-04-01T02:49:21;26.58;;;5.00;;
67904;SDS011;54709;43.614;1.576;2023-04-01T02:51:47;29.58;;;5.18;;
67904;SDS011;54709;43.614;1.576;2023-04-01T02:54:12;34.83;;;5.35;;
67904;SDS011;54709;43.614;1.576;2023-04-01T02:56:38;35.90;;;5.70;;
67904;SDS011;54709;43.614;1.576;2023-04-01T02:59:03;32.10;;;5.15;;
67904;SDS011;54709;43.614;1.576;2023-04-01T03:01:28;35.35;;;5.13;;
67904;SDS011;54709;43.614;1.576;2023-04-01T03:03:54;29.63;;;5.50;;
67904;SDS011;54709;43.614;1.576;2023-04-01T03:06:19;33.40;;;5.80;;
67904;SDS011;54709;43.614;1.576;2023-04-01T03:08:45;32.95;;;5.75;;
67904;SDS011;54709;43.614;1.576;2023-04-01T03:11:10;32.72;;;5.60;;
67904;SDS011;54709;43.614;1.576;2023-04-01T03:13:36;32.17;;;5.20;;
67904;SDS011;54709;43.614;1.576;2023-04-01T03:16:02;30.98;;;5.40;;
67904;SDS011;54709;43.614;1.576;2023-04-01T03:18:28;34.63;;;5.78;;
67904;SDS011;54709;43.614;1.576;2023-04-01T03:20:53;34.58;;;5.97;;
67904;SDS011;54709;43.614;1.576;2023-04-01T03:23:18;27.15;;;5.13;;
67904;SDS011;54709;43.614;1.576;2023-04-01T03:25:49;30.38;;;5.45;;
67904;SDS011;54709;43.614;1.576;2023-04-01T03:28:15;22.45;;;4.90;;
67904;SDS011;54709;43.614;1.576;2023-04-01T03:30:40;31.85;;;5.53;;
67904;SDS011;54709;43.614;1.576;2023-04-01T03:33:06;30.20;;;5.63;;
67904;SDS011;54709;43.614;1.576;2023-04-01T03:35:31;37.42;;;5.18;;
67904;SDS011;54709;43.614;1.576;2023-04-01T03:37:57;33.80;;;5.85;;
67904;SDS011;54709;43.614;1.576;2023-04-01T03:40:22;33.45;;;5.65;;
67904;SDS011;54709;43.614;1.576;2023-04-01T03:42:48;32.80;;;4.95;;
67904;SDS011;54709;43.614;1.576;2023-04-01T03:45:14;31.55;;;5.40;;
67904;SDS011;54709;43.614;1.576;2023-04-01T03:47:40;36.33;;;5.40;;
67904;SDS011;54709;43.614;1.576;2023-04-01T03:50:06;30.67;;;5.43;;
67904;SDS011;54709;43.614;1.576;2023-04-01T03:52:32;33.05;;;5.47;;
67904;SDS011;54709;43.614;1.576;2023-04-01T03:54:58;30.17;;;5.80;;
67904;SDS011;54709;43.614;1.576;2023-04-01T03:57:23;35.78;;;5.82;;
67904;SDS011;54709;43.614;1.576;2023-04-01T03:59:49;35.60;;;5.22;;
67904;SDS011;54709;43.614;1.576;2023-04-01T04:02:14;30.42;;;5.22;;
67904;SDS011;54709;43.614;1.576;2023-04-01T04:04:40;37.88;;;5.72;;
67904;SDS011;54709;43.614;1.576;2023-04-01T04:07:06;36.10;;;5.57;;
67904;SDS011;54709;43.614;1.576;2023-04-01T04:09:31;33.45;;;5.93;;
67904;SDS011;54709;43.614;1.576;2023-04-01T04:11:57;36.08;;;5.93;;
67904;SDS011;54709;43.614;1.576;2023-04-01T04:14:22;29.83;;;5.00;;
67904;SDS011;54709;43.614;1.576;2023-04-01T04:16:48;32.33;;;5.85;;
67904;SDS011;54709;43.614;1.576;2023-04-01T04:19:13;30.55;;;5.32;;
67904;SDS011;54709;43.614;1.576;2023-04-01T04:21:40;36.03;;;5.90;;
67904;SDS011;54709;43.614;1.576;2023-04-01T04:24:05;29.10;;;4.93;;
67904;SDS011;54709;43.614;1.576;2023-04-01T04:26:31;33.78;;;5.20;;
67904;SDS011;54709;43.614;1.576;2023-04-01T04:28:56;31.25;;;5.35;;
67904;SDS011;54709;43.614;1.576;2023-04-01T04:31:22;28.13;;;5.32;;
67904;SDS011;54709;43.614;1.576;2023-04-01T04:33:48;32.70;;;5.10;;
67904;SDS011;54709;43.614;1.576;2023-04-01T04:36:14;28.77;;;5.82;;
67904;SDS011;54709;43.614;1.576;2023-04-01T04:38:39;31.90;;;5.22;;
67904;SDS011;54709;43.614;1.576;2023-04-01T04:41:15;32.08;;;5.60;;
67904;SDS011;54709;43.614;1.576;2023-04-01T04:43:47;26.85;;;5.28;;
67904;SDS011;54709;43.614;1.576;2023-04-01T04:46:14;32.38;;;6.05;;
67904;SDS011;54709;43.614;1.576;2023-04-01T04:48:39;33.60;;;5.90;;
67904;SDS011;54709;43.614;1.576;2023-04-01T04:51:04;28.45;;;4.90;;
67904;SDS011;54709;43.614;1.576;2023-04-01T04:53:30;34.78;;;5.65;;
67904;SDS011;54709;43.614;1.576;2023-04-01T04:55:55;25.50;;;5.75;;
67904;SDS011;54709;43.614;1.576;2023-04-01T04:58:21;30.85;;;6.72;;
67904;SDS011;54709;43.614;1.576;2023-04-01T05:00:46;25.70;;;5.32;;
67904;SDS011;54709;43.614;1.576;2023-04-01T05:03:12;30.10;;;5.00;;
67904;SDS011;54709;43.614;1.576;2023-04-01T05:05:37;33.33;;;5.05;;
67904;SDS011;54709;43.614;1.576;2023-04-01T05:08:04;26.95;;;4.85;;
67904;SDS011;54709;43.614;1.576;2023-04-01T05:10:29;32.40;;;5.28;;
67904;SDS011;54709;43.614;1.576;2023-04-01T05:12:56;33.58;;;5.75;;
67904;SDS011;54709;43.614;1.576;2023-04-01T05:15:22;37.42;;;5.05;;
67904;SDS011;54709;43.614;1.576;2023-04-01T05:17:47;30.67;;;5.70;;
67904;SDS011;54709;43.614;1.576;2023-04-01T05:20:13;33.28;;;5.75;;
67904;SDS011;54709;43.614;1.576;2023-04-01T05:22:39;28.52;;;5.50;;
67904;SDS011;54709;43.614;1.576;2023-04-01T05:25:05;26.52;;;5.38;;
67904;SDS011;54709;43.614;1.576;2023-04-01T05:27:31;37.47;;;5.63;;
67904;SDS011;54709;43.614;1.576;2023-04-01T05:29:57;28.70;;;4.88;;
67904;SDS011;54709;43.614;1.576;2023-04-01T05:32:22;29.00;;;5.55;;
67904;SDS011;54709;43.614;1.576;2023-04-01T05:34:51;27.17;;;5.35;;
67904;SDS011;54709;43.614;1.576;2023-04-01T05:37:17;26.58;;;4.65;;
67904;SDS011;54709;43.614;1.576;2023-04-01T05:39:43;26.30;;;4.78;;
67904;SDS011;54709;43.614;1.576;2023-04-01T05:42:08;31.35;;;4.50;;
67904;SDS011;54709;43.614;1.576;2023-04-01T05:44:34;27.55;;;5.28;;
67904;SDS011;54709;43.614;1.576;2023-04-01T05:47:00;38.58;;;5.20;;
67904;SDS011;54709;43.614;1.576;2023-04-01T05:49:25;31.33;;;5.18;;
67904;SDS011;54709;43.614;1.576;2023-04-01T05:51:51;28.08;;;5.07;;
67904;SDS011;54709;43.614;1.576;2023-04-01T05:54:16;28.02;;;4.65;;
67904;SDS011;54709;43.614;1.576;2023-04-01T05:56:42;29.65;;;5.18;;
67904;SDS011;54709;43.614;1.576;2023-04-01T05:59:09;26.08;;;4.80;;
67904;SDS011;54709;43.614;1.576;2023-04-01T06:01:35;29.60;;;5.68;;
67904;SDS011;54709;43.614;1.576;2023-04-01T06:04:00;36.15;;;5.40;;
67904;SDS011;54709;43.614;1.576;2023-04-01T06:06:27;36.88;;;5.30;;
67904;SDS011;54709;43.614;1.576;2023-04-01T06:08:53;30.08;;;5.25;;
67904;SDS011;54709;43.614;1.576;2023-04-01T06:17:01;29.05;;;4.68;;
67904;SDS011;54709;43.614;1.576;2023-04-01T06:54:04;34.40;;;5.10;;
67904;SDS011;54709;43.614;1.576;2023-04-01T06:56:34;32.47;;;5.10;;
67904;SDS011;54709;43.614;1.576;2023-04-01T06:59:04;28.52;;;5.35;;
67904;SDS011;54709;43.614;1.576;2023-04-01T07:01:37;25.42;;;4.90;;
67904;SDS011;54709;43.614;1.576;2023-04-01T07:04:13;33.25;;;5.22;;
67904;SDS011;54709;43.614;1.576;2023-04-01T07:06:59;35.30;;;5.32;;
67904;SDS011;54709;43.614;1.576;2023-04-01T07:10:02;31.70;;;5.50;;
67904;SDS011;54709;43.614;1.576;2023-04-01T07:14:57;33.30;;;5.55;;
67904;SDS011;54709;43.614;1.576;2023-04-01T07:17:27;30.70;;;4.95;;
67904;SDS011;54709;43.614;1.576;2023-04-01T07:23:04;30.92;;;5.10;;
67904;SDS011;54709;43.614;1.576;2023-04-01T07:25:34;29.95;;;5.30;;
67904;SDS011;54709;43.614;1.576;2023-04-01T07:28:06;36.75;;;6.05;;
67904;SDS011;54709;43.614;1.576;2023-04-01T07:30:43;29.40;;;5.53;;
67904;SDS011;54709;43.614;1.576;2023-04-01T07:33:32;31.45;;;5.43;;
67904;SDS011;54709;43.614;1.576;2023-04-01T07:36:09;36.80;;;5.72;;
67904;SDS011;54709;43.614;1.576;2023-04-01T07:38:43;28.13;;;5.35;;
67904;SDS011;54709;43.614;1.576;2023-04-01T07:44:10;27.00;;;5.07;;
67904;SDS011;54709;43.614;1.576;2023-04-01T07:46:49;33.55;;;5.30;;
67904;SDS011;54709;43.614;1.576;2023-04-01T07:54:41;32.03;;;5.00;;
67904;SDS011;54709;43.614;1.576;2023-04-01T07:57:22;30.75;;;5.78;;
67904;SDS011;54709;43.614;1.576;2023-04-01T07:59:53;32.53;;;4.90;;
67904;SDS011;54709;43.614;1.576;2023-04-01T08:02:33;33.35;;;6.13;;
67904;SDS011;54709;43.614;1.576;2023-04-01T08:15:49;28.30;;;5.00;;
67904;SDS011;54709;43.614;1.576;2023-04-01T08:18:26;20.80;;;5.10;;
67904;SDS011;54709;43.614;1.576;2023-04-01T08:21:01;22.05;;;4.78;;
67904;SDS011;54709;43.614;1.576;2023-04-01T08:23:30;23.02;;;5.30;;
67904;SDS011;54709;43.614;1.576;2023-04-01T08:26:10;22.20;;;5.22;;
67904;SDS011;54709;43.614;1.576;2023-04-01T08:28:44;27.25;;;5.82;;
67904;SDS011;54709;43.614;1.576;2023-04-01T08:31:12;27.92;;;5.80;;
67904;SDS011;54709;43.614;1.576;2023-04-01T08:33:41;25.40;;;5.10;;
67904;SDS011;54709;43.614;1.576;2023-04-01T08:36:14;31.88;;;5.50;;
67904;SDS011;54709;43.614;1.576;2023-04-01T08:38:55;25.20;;;5.35;;
67904;SDS011;54709;43.614;1.576;2023-04-01T08:41:28;22.83;;;4.78;;
67904;SDS011;54709;43.614;1.576;2023-04-01T08:50:01;28.27;;;5.10;;
67904;SDS011;54709;43.614;1.576;2023-04-01T08:55:22;22.20;;;4.72;;
67904;SDS011;54709;43.614;1.576;2023-04-01T09:11:41;22.67;;;4.35;;
67904;SDS011;54709;43.614;1.576;2023-04-01T09:27:29;9.60;;;2.80;;
67904;SDS011;54709;43.614;1.576;2023-04-01T09:35:49;11.03;;;2.70;;
67904;SDS011;54709;43.614;1.576;2023-04-01T09:38:42;13.50;;;2.67;;
67904;SDS011;54709;43.614;1.576;2023-04-01T09:41:31;13.07;;;2.80;;
67904;SDS011;54709;43.614;1.576;2023-04-01T10:00:23;8.00;;;1.92;;
67904;SDS011;54709;43.614;1.576;2023-04-01T10:20:05;8.23;;;2.40;;
67904;SDS011;54709;43.614;1.576;2023-04-01T10:36:21;8.38;;;2.00;;
67904;SDS011;54709;43.614;1.576;2023-04-01T10:42:54;5.88;;;1.90;;
67904;SDS011;54709;43.614;1.576;2023-04-01T10:51:32;10.70;;;3.35;;
67904;SDS011;54709;43.614;1.576;2023-04-01T10:54:18;9.15;;;2.25;;
67904;SDS011;54709;43.614;1.576;2023-04-01T11:10:55;10.50;;;2.33;;
67904;SDS011;54709;43.614;1.576;2023-04-01T11:13:44;10.98;;;2.33;;
67904;SDS011;54709;43.614;1.576;2023-04-01T11:33:16;12.65;;;2.85;;
67904;SDS011;54709;43.614;1.576;2023-04-01T11:41:27;16.25;;;3.22;;
67904;SDS011;54709;43.614;1.576;2023-04-01T11:44:17;9.27;;;2.20;;
67904;SDS011;54709;43.614;1.576;2023-04-01T11:58:18;6.00;;;1.90;;
67904;SDS011;54709;43.614;1.576;2023-04-01T12:00:58;9.27;;;2.17;;
67904;SDS011;54709;43.614;1.576;2023-04-01T12:06:36;9.90;;;2.08;;
67904;SDS011;54709;43.614;1.576;2023-04-01T12:14:31;7.72;;;1.75;;
67904;SDS011;54709;43.614;1.576;2023-04-01T12:22:23;5.22;;;1.50;;
67904;SDS011;54709;43.614;1.576;2023-04-01T12:33:56;4.10;;;1.45;;
67904;SDS011;54709;43.614;1.576;2023-04-01T12:55:48;8.65;;;1.70;;
67904;SDS011;54709;43.614;1.576;2023-04-01T13:03:41;9.77;;;2.75;;
67904;SDS011;54709;43.614;1.576;2023-04-01T13:09:14;5.00;;;1.65;;
67904;SDS011;54709;43.614;1.576;2023-04-01T13:20:18;8.05;;;1.42;;
67904;SDS011;54709;43.614;1.576;2023-04-01T13:25:22;5.55;;;1.60;;
67904;SDS011;54709;43.614;1.576;2023-04-01T13:28:53;6.55;;;1.90;;
67904;SDS011;54709;43.614;1.576;2023-04-01T13:56:13;7.75;;;2.08;;
67904;SDS011;54709;43.614;1.576;2023-04-01T13:58:54;5.28;;;1.30;;
67904;SDS011;54709;43.614;1.576;2023-04-01T14:41:40;6.55;;;2.08;;
67904;SDS011;54709;43.614;1.576;2023-04-01T14:44:17;11.85;;;2.28;;
67904;SDS011;54709;43.614;1.576;2023-04-01T14:50:15;12.80;;;3.10;;
67904;SDS011;54709;43.614;1.576;2023-04-01T14:55:55;11.15;;;2.38;;
67904;SDS011;54709;43.614;1.576;2023-04-01T15:00:47;14.10;;;2.40;;
67904;SDS011;54709;43.614;1.576;2023-04-01T15:08:29;11.05;;;2.13;;
67904;SDS011;54709;43.614;1.576;2023-04-01T15:16:59;11.23;;;1.60;;
67904;SDS011;54709;43.614;1.576;2023-04-01T15:28:10;6.03;;;1.30;;
67904;SDS011;54709;43.614;1.576;2023-04-01T15:39:20;7.45;;;1.45;;
67904;SDS011;54709;43.614;1.576;2023-04-01T15:49:52;7.80;;;1.98;;
67904;SDS011;54709;43.614;1.576;2023-04-01T16:00:30;8.00;;;2.03;;
67904;SDS011;54709;43.614;1.576;2023-04-01T16:06:01;6.60;;;1.58;;
67904;SDS011;54709;43.614;1.576;2023-04-01T16:17:16;5.05;;;1.75;;
67904;SDS011;54709;43.614;1.576;2023-04-01T16:25:45;8.55;;;1.65;;
67904;SDS011;54709;43.614;1.576;2023-04-01T16:36:24;10.77;;;2.03;;
67904;SDS011;54709;43.614;1.576;2023-04-01T16:41:53;6.65;;;1.90;;
67904;SDS011;54709;43.614;1.576;2023-04-01T16:44:31;6.70;;;1.60;;
67904;SDS011;54709;43.614;1.576;2023-04-01T16:47:14;8.55;;;1.90;;
67904;SDS011;54709;43.614;1.576;2023-04-01T16:49:46;7.30;;;1.83;;
67904;SDS011;54709;43.614;1.576;2023-04-01T16:52:17;6.93;;;1.90;;
67904;SDS011;54709;43.614;1.576;2023-04-01T16:57:55;8.32;;;1.88;;
67904;SDS011;54709;43.614;1.576;2023-04-01T17:02:49;8.65;;;1.92;;
67904;SDS011;54709;43.614;1.576;2023-04-01T17:05:20;7.20;;;1.83;;
67904;SDS011;54709;43.614;1.576;2023-04-01T17:08:00;7.53;;;1.60;;
67904;SDS011;54709;43.614;1.576;2023-04-01T17:10:53;7.68;;;2.00;;
67904;SDS011;54709;43.614;1.576;2023-04-01T17:21:10;8.68;;;1.92;;
67904;SDS011;54709;43.614;1.576;2023-04-01T17:29:25;10.07;;;2.08;;
67904;SDS011;54709;43.614;1.576;2023-04-01T17:32:19;7.93;;;2.15;;
67904;SDS011;54709;43.614;1.576;2023-04-01T17:46:01;6.57;;;2.40;;
67904;SDS011;54709;43.614;1.576;2023-04-01T18:04:37;7.43;;;2.50;;
67904;SDS011;54709;43.614;1.576;2023-04-01T18:20:57;6.88;;;1.67;;
67904;SDS011;54709;43.614;1.576;2023-04-01T18:26:02;5.88;;;1.60;;
67904;SDS011;54709;43.614;1.576;2023-04-01T18:28:50;7.75;;;1.65;;
67904;SDS011;54709;43.614;1.576;2023-04-01T18:31:22;7.03;;;1.67;;
67904;SDS011;54709;43.614;1.576;2023-04-01T18:36:36;10.95;;;3.22;;
67904;SDS011;54709;43.614;1.576;2023-04-01T18:42:06;7.90;;;2.20;;
67904;SDS011;54709;43.614;1.576;2023-04-01T18:44:50;6.68;;;2.40;;
67904;SDS011;54709;43.614;1.576;2023-04-01T18:47:25;8.80;;;1.83;;
67904;SDS011;54709;43.614;1.576;2023-04-01T18:50:36;9.73;;;2.60;;
67904;SDS011;54709;43.614;1.576;2023-04-01T18:56:41;12.02;;;2.20;;
67904;SDS011;54709;43.614;1.576;2023-04-01T18:59:08;7.63;;;1.90;;
67904;SDS011;54709;43.614;1.576;2023-04-01T19:06:54;8.82;;;2.47;;
67904;SDS011;54709;43.614;1.576;2023-04-01T19:09:26;10.10;;;3.08;;
67904;SDS011;54709;43.614;1.576;2023-04-01T19:14:38;7.25;;;2.03;;
67904;SDS011;54709;43.614;1.576;2023-04-01T19:25:58;6.40;;;1.88;;
67904;SDS011;54709;43.614;1.576;2023-04-01T19:31:11;5.80;;;2.28;;
67904;SDS011;54709;43.614;1.576;2023-04-01T19:33:45;6.60;;;2.40;;
67904;SDS011;54709;43.614;1.576;2023-04-01T19:39:27;8.32;;;2.33;;
67904;SDS011;54709;43.614;1.576;2023-04-01T19:47:35;8.68;;;1.95;;
67904;SDS011;54709;43.614;1.576;2023-04-01T19:53:06;7.03;;;2.05;;
67904;SDS011;54709;43.614;1.576;2023-04-01T19:56:28;6.30;;;2.20;;
67904;SDS011;54709;43.614;1.576;2023-04-01T19:58:37;7.55;;;2.17;;
67904;SDS011;54709;43.614;1.576;2023-04-01T20:01:06;6.85;;;2.53;;
67904;SDS011;54709;43.614;1.576;2023-04-01T20:09:07;8.57;;;2.13;;
67904;SDS011;54709;43.614;1.576;2023-04-01T20:11:59;8.48;;;2.28;;
67904;SDS011;54709;43.614;1.576;2023-04-01T20:14:33;7.25;;;2.65;;
67904;SDS011;54709;43.614;1.576;2023-04-01T20:19:43;7.88;;;2.95;;
67904;SDS011;54709;43.614;1.576;2023-04-01T20:24:58;8.98;;;2.58;;
67904;SDS011;54709;43.614;1.576;2023-04-01T20:27:31;12.80;;;2.65;;
67904;SDS011;54709;43.614;1.576;2023-04-01T20:32:52;6.15;;;2.20;;
67904;SDS011;54709;43.614;1.576;2023-04-01T20:38:41;8.40;;;2.33;;
67904;SDS011;54709;43.614;1.576;2023-04-01T20:47:16;8.32;;;2.10;;
67904;SDS011;54709;43.614;1.576;2023-04-01T21:20:07;8.48;;;1.80;;
67904;SDS011;54709;43.614;1.576;2023-04-01T21:22:53;7.75;;;1.83;;
67904;SDS011;54709;43.614;1.576;2023-04-01T21:31:00;8.30;;;2.05;;
67904;SDS011;54709;43.614;1.576;2023-04-01T21:38:59;8.45;;;1.90;;
67904;SDS011;54709;43.614;1.576;2023-04-01T21:49:36;11.70;;;1.80;;
67904;SDS011;54709;43.614;1.576;2023-04-01T21:52:24;11.88;;;2.42;;
67904;SDS011;54709;43.614;1.576;2023-04-01T22:00:21;9.73;;;1.92;;
67904;SDS011;54709;43.614;1.576;2023-04-01T22:11:30;11.65;;;2.33;;
67904;SDS011;54709;43.614;1.576;2023-04-01T22:14:21;13.03;;;2.20;;
67904;SDS011;54709;43.614;1.576;2023-04-01T22:22:04;12.52;;;2.40;;
67904;SDS011;54709;43.614;1.576;2023-04-01T22:24:52;12.05;;;2.20;;
67904;SDS011;54709;43.614;1.576;2023-04-01T22:32:49;11.00;;;2.38;;
67904;SDS011;54709;43.614;1.576;2023-04-01T22:40:56;11.15;;;2.10;;
67904;SDS011;54709;43.614;1.576;2023-04-01T22:43:30;11.48;;;1.73;;
67904;SDS011;54709;43.614;1.576;2023-04-01T22:46:19;12.20;;;1.98;;
67904;SDS011;54709;43.614;1.576;2023-04-01T22:57:00;12.30;;;2.20;;
67904;SDS011;54709;43.614;1.576;2023-04-01T23:02:21;9.68;;;1.88;;
67904;SDS011;54709;43.614;1.576;2023-04-01T23:04:58;11.48;;;2.20;;
67904;SDS011;54709;43.614;1.576;2023-04-01T23:10:39;8.77;;;1.80;;
67904;SDS011;54709;43.614;1.576;2023-04-01T23:13:04;9.77;;;1.70;;
67904;SDS011;54709;43.614;1.576;2023-04-01T23:15:36;6.60;;;1.80;;
67904;SDS011;54709;43.614;1.576;2023-04-01T23:20:29;6.60;;;1.73;;
67904;SDS011;54709;43.614;1.576;2023-04-01T23:23:30;6.05;;;1.80;;
67904;SDS011;54709;43.614;1.576;2023-04-01T23:26:13;9.85;;;2.10;;
67904;SDS011;54709;43.614;1.576;2023-04-01T23:34:02;11.82;;;2.38;;
67904;SDS011;54709;43.614;1.576;2023-04-01T23:36:30;5.10;;;1.48;;
67904;SDS011;54709;43.614;1.576;2023-04-01T23:38:56;8.00;;;1.92;;
67904;SDS011;54709;43.614;1.576;2023-04-01T23:41:28;8.18;;;1.80;;
67904;SDS011;54709;43.614;1.576;2023-04-01T23:43:58;11.05;;;1.70;;
67904;SDS011;54709;43.614;1.576;2023-04-01T23:46:26;11.65;;;2.03;;
67904;SDS011;54709;43.614;1.576;2023-04-01T23:48:54;9.13;;;1.90;;
67904;SDS011;54709;43.614;1.576;2023-04-01T23:53:47;10.40;;;2.17;;
67904;SDS011;54709;43.614;1.576;2023-04-01T23:56:16;8.95;;;1.98;;
67904;SDS011;54709;43.614;1.576;2023-04-01T23:58:47;12.25;;;2.00;;
